Time;durP1;ratioP1;P1;durP2;ratioP2;P2;SDS_P1;SDS_P2;PMS_P1;PMS_P2;Temp;Humidity;BMP_temperature;BMP_pressure;BME280_temperature;BME280_humidity;BME280_pressure;Samples;Min_cycle;Max_cycle;Signal;HPM_P1;HPM_P2
2024/01/29 00:01:28;;;;;;;;;103.33;73.67;;;;;-2.48;100.00;101717.09;6273137;20;3677362;-45
2024/01/29 00:03:56;;;;;;;;;84.50;66.00;;;;;-1.86;100.00;101704.50;6303497;20;2500363;-44
2024/01/29 00:06:25;;;;;;;;;92.33;63.67;;;;;-2.40;100.00;101707.66;6278657;20;3668087;-45
2024/01/29 00:08:56;;;;;;;;;93.00;69.00;;;;;-2.10;100.00;101720.66;6309388;20;2896261;-44
2024/01/29 00:11:26;;;;;;;;;100.00;72.00;;;;;-2.23;100.00;101713.34;6310211;20;3669122;-44
2024/01/29 00:13:56;;;;;;;;;97.00;70.00;;;;;-1.93;100.00;101705.22;6307467;20;3659747;-47
2024/01/29 00:16:26;;;;;;;;;103.67;73.00;;;;;-2.16;100.00;101706.47;6308533;20;3680525;-46
2024/01/29 00:18:55;;;;;;;;;96.67;70.33;;;;;-2.30;100.00;101698.25;6304752;20;3664865;-44
2024/01/29 00:21:26;;;;;;;;;98.00;70.33;;;;;-2.27;100.00;101701.84;6307929;20;3661774;-45
2024/01/29 00:23:59;;;;;;;;;94.67;69.00;;;;;-1.80;100.00;101709.91;6307660;20;3656552;-43
2024/01/29 00:26:29;;;;;;;;;80.33;60.67;;;;;-2.49;100.00;101705.72;6307119;20;2894056;-44
2024/01/29 00:28:59;;;;;;;;;89.33;66.00;;;;;-1.47;100.00;101698.31;6305897;20;2895161;-46
2024/01/29 00:31:28;;;;;;;;;86.00;66.00;;;;;-1.91;100.00;101707.91;6304771;20;2500303;-44
2024/01/29 00:33:58;;;;;;;;;84.33;62.33;;;;;-1.73;100.00;101717.97;6274867;20;2887823;-45
2024/01/29 00:36:28;;;;;;;;;88.00;64.33;;;;;-2.30;100.00;101729.81;6307373;20;2905659;-45
2024/01/29 00:38:57;;;;;;;;;55.67;47.33;;;;;-1.99;100.00;101728.78;6304736;20;2881530;-44
2024/01/29 00:41:27;;;;;;;;;105.33;77.33;;;;;-2.18;100.00;101730.13;6308338;20;3673254;-46
2024/01/29 00:43:57;;;;;;;;;97.00;74.33;;;;;-2.14;100.00;101737.22;6306454;20;2892163;-47
2024/01/29 00:46:27;;;;;;;;;90.33;68.33;;;;;-2.30;100.00;101732.44;6308344;20;2909841;-44
2024/01/29 00:48:55;;;;;;;;;76.00;61.00;;;;;-2.61;100.00;101721.16;6305995;20;2500438;-44
2024/01/29 00:51:23;;;;;;;;;80.00;57.50;;;;;-2.22;100.00;101717.72;6273967;20;2500320;-43
2024/01/29 00:53:53;;;;;;;;;80.00;63.00;;;;;-2.05;100.00;101713.75;6275823;20;2866935;-44
2024/01/29 00:56:23;;;;;;;;;84.67;62.33;;;;;-1.79;100.00;101718.69;6275546;20;2898318;-46
2024/01/29 00:58:52;;;;;;;;;85.67;66.00;;;;;-1.74;100.00;101730.22;6303997;20;2886865;-44
2024/01/29 01:01:20;;;;;;;;;88.50;68.00;;;;;-1.96;100.00;101730.59;6303637;20;2500302;-44
2024/01/29 01:03:50;;;;;;;;;88.00;66.33;;;;;-1.98;100.00;101741.97;6275980;20;2902500;-46
2024/01/29 01:06:18;;;;;;;;;84.50;61.50;;;;;-1.66;100.00;101731.28;6302404;20;2500245;-44
2024/01/29 01:08:48;;;;;;;;;85.00;63.00;;;;;-1.65;100.00;101735.69;6276321;20;2883613;-44
2024/01/29 01:11:16;;;;;;;;;82.00;62.00;;;;;-2.19;100.00;101730.94;6272818;20;2500292;-45
2024/01/29 01:13:45;;;;;;;;;84.50;64.00;;;;;-2.30;100.00;101729.81;6276070;20;2890995;-44
2024/01/29 01:16:13;;;;;;;;;84.33;63.33;;;;;-2.52;100.00;101731.94;6274802;20;2879732;-45
2024/01/29 01:18:42;;;;;;;;;74.00;56.00;;;;;-2.15;100.00;101732.81;6305949;20;2883579;-44
2024/01/29 01:21:11;;;;;;;;;84.50;66.00;;;;;-2.00;100.00;101732.28;6275153;20;2876352;-44
2024/01/29 01:23:41;;;;;;;;;90.67;66.00;;;;;-1.91;100.00;101735.13;6273170;20;3654503;-44
2024/01/29 01:26:11;;;;;;;;;99.33;75.00;;;;;-2.38;100.00;101734.00;6307568;20;3661860;-44
2024/01/29 01:28:40;;;;;;;;;121.50;89.50;;;;;-2.43;100.00;101732.16;6305545;20;3570582;-43
2024/01/29 01:31:10;;;;;;;;;130.67;106.00;;;;;-2.48;100.00;101738.16;6311047;20;3718994;-45
2024/01/29 01:33:40;;;;;;;;;102.00;75.33;;;;;-2.49;100.00;101732.00;6277923;20;3668027;-43
2024/01/29 01:36:10;;;;;;;;;102.00;75.00;;;;;-2.88;100.00;101732.75;6312964;20;3678811;-45
2024/01/29 01:38:38;;;;;;;;;80.00;60.00;;;;;-2.80;100.00;101735.59;6304180;20;2487865;-44
2024/01/29 01:41:06;;;;;;;;;64.00;54.00;;;;;-2.69;100.00;101738.50;6278895;20;2504247;-44
2024/01/29 01:43:35;;;;;;;;;91.67;66.00;;;;;-2.33;100.00;101737.66;6281333;20;3662829;-43
2024/01/29 01:46:04;;;;;;;;;67.00;51.50;;;;;-2.58;100.00;101737.06;6313419;20;2855706;-45
2024/01/29 01:48:37;;;;;;;;;54.50;43.00;;;;;-2.26;100.00;101723.78;6280966;20;2880562;-45
2024/01/29 01:51:07;;;;;;;;;63.50;48.00;;;;;-1.81;100.00;101717.78;6279687;20;2857696;-44
2024/01/29 01:53:38;;;;;;;;;59.50;48.50;;;;;-2.21;100.00;101719.53;6275601;20;2508673;-44
2024/01/29 01:56:07;;;;;;;;;55.00;45.50;;;;;-2.05;100.00;101729.53;6276862;20;2877680;-47
2024/01/29 01:58:35;;;;;;;;;69.00;53.00;;;;;-1.98;100.00;101734.06;6276976;20;2874292;-44
2024/01/29 02:01:03;;;;;;;;;82.00;59.00;;;;;-1.94;100.00;101726.28;6275733;20;2501126;-44
2024/01/29 02:03:33;;;;;;;;;80.00;59.00;;;;;-1.69;100.00;101725.06;6279665;20;2874258;-44
2024/01/29 02:06:02;;;;;;;;;58.50;48.00;;;;;-2.49;100.00;101710.97;6281495;20;2857569;-44
2024/01/29 02:08:31;;;;;;;;;77.00;58.50;;;;;-2.29;100.00;101715.81;6272488;20;2500305;-45
2024/01/29 02:11:00;;;;;;;;;92.00;64.33;;;;;-2.77;100.00;101717.28;6279170;20;3664832;-45
2024/01/29 02:13:29;;;;;;;;;74.00;54.00;;;;;-2.19;100.00;101715.16;6309807;20;2852388;-45
2024/01/29 02:15:59;;;;;;;;;70.33;57.00;;;;;-2.07;100.00;101717.22;6280552;20;3603487;-44
2024/01/29 02:18:29;;;;;;;;;73.00;57.50;;;;;-2.10;100.00;101710.13;6278508;20;2869263;-44
2024/01/29 02:20:57;;;;;;;;;73.00;54.00;;;;;-2.16;100.00;101704.72;6274400;20;2492961;-45
2024/01/29 02:23:25;;;;;;;;;85.50;62.50;;;;;-2.39;100.00;101708.56;6273315;20;2500397;-44
2024/01/29 02:25:55;;;;;;;;;86.67;64.67;;;;;-2.54;100.00;101712.59;6277996;20;2892124;-46
2024/01/29 02:28:27;;;;;;;;;86.33;60.67;;;;;-2.59;100.00;101701.06;6311954;20;2903649;-44
2024/01/29 02:30:56;;;;;;;;;73.00;54.00;;;;;-1.98;100.00;101698.97;6304950;20;2881575;-44
2024/01/29 02:33:26;;;;;;;;;87.33;60.33;;;;;-2.27;100.00;101695.69;6278859;20;2904571;-45
2024/01/29 02:35:55;;;;;;;;;80.50;53.00;;;;;-1.83;100.00;101698.44;6303357;20;2496159;-45
2024/01/29 02:38:23;;;;;;;;;73.00;53.00;;;;;-2.86;100.00;101701.28;6276083;20;2518091;-45
2024/01/29 02:40:52;;;;;;;;;70.00;54.00;;;;;-2.64;100.00;101713.22;6273847;20;2864329;-46
2024/01/29 02:43:21;;;;;;;;;75.50;54.50;;;;;-2.51;100.00;101702.13;6279085;20;2878399;-45
2024/01/29 02:45:50;;;;;;;;;74.50;57.50;;;;;-3.14;100.00;101707.53;6274845;20;2502392;-44
2024/01/29 02:48:18;;;;;;;;;75.00;53.00;;;;;-2.61;100.00;101710.66;6275634;20;2499240;-44
2024/01/29 02:50:48;;;;;;;;;76.50;52.00;;;;;-2.61;100.00;101715.91;6278525;20;2875402;-44
2024/01/29 02:53:17;;;;;;;;;85.33;66.00;;;;;-2.06;100.00;101706.69;6278866;20;2887928;-44
2024/01/29 02:55:45;;;;;;;;;77.00;51.50;;;;;-1.93;100.00;101705.22;6305008;20;2497251;-44
2024/01/29 02:58:13;;;;;;;;;79.00;57.00;;;;;-1.98;100.00;101702.50;6276223;20;2500310;-44
2024/01/29 03:00:41;;;;;;;;;75.50;55.00;;;;;-2.08;100.00;101703.16;6271797;20;2873300;-44
2024/01/29 03:03:11;;;;;;;;;61.00;48.00;;;;;-2.40;100.00;101715.53;6277798;20;2862771;-44
2024/01/29 03:05:39;;;;;;;;;74.33;54.33;;;;;-2.50;100.00;101709.19;6278905;20;2878396;-43
2024/01/29 03:08:09;;;;;;;;;71.67;48.33;;;;;-2.49;100.00;101705.72;6310014;20;3644034;-44
2024/01/29 03:10:38;;;;;;;;;54.00;45.50;;;;;-2.32;100.00;101707.84;6307583;20;2862273;-44
2024/01/29 03:13:07;;;;;;;;;63.00;48.00;;;;;-2.44;100.00;101708.47;6278318;20;2876363;-43
2024/01/29 03:15:36;;;;;;;;;46.00;37.00;;;;;-2.28;100.00;101713.22;6279444;20;2891976;-44
2024/01/29 03:18:04;;;;;;;;;44.00;38.00;;;;;-2.08;100.00;101723.31;6274765;20;2500412;-45
2024/01/29 03:20:32;;;;;;;;;39.50;34.00;;;;;-2.05;100.00;101716.38;6277478;20;2846114;-44
2024/01/29 03:23:00;;;;;;;;;52.00;42.00;;;;;-1.94;100.00;101718.38;6274693;20;2500306;-44
2024/01/29 03:25:29;;;;;;;;;48.50;42.00;;;;;-1.89;100.00;101714.97;6278672;20;2875360;-44
2024/01/29 03:27:58;;;;;;;;;52.50;40.00;;;;;-2.32;100.00;101721.00;6277223;20;2876296;-43
2024/01/29 03:30:27;;;;;;;;;61.00;49.00;;;;;-1.88;100.00;101716.75;6277560;20;2851381;-44
2024/01/29 03:32:57;;;;;;;;;57.50;47.00;;;;;-1.81;100.00;101723.06;6274651;20;2508658;-44
2024/01/29 03:35:25;;;;;;;;;57.50;46.00;;;;;-1.75;100.00;101714.41;6279810;20;2863852;-44
2024/01/29 03:37:55;;;;;;;;;68.67;48.33;;;;;-2.04;100.00;101710.25;6277782;20;2884760;-46
2024/01/29 03:40:24;;;;;;;;;61.00;50.00;;;;;-1.86;100.00;101714.16;6304532;20;2854459;-44
2024/01/29 03:42:53;;;;;;;;;61.00;47.00;;;;;-1.53;100.00;101713.97;6277197;20;2866901;-45
2024/01/29 03:45:23;;;;;;;;;70.67;48.67;;;;;-1.58;100.00;101711.25;6277189;20;2888808;-43
2024/01/29 03:47:52;;;;;;;;;63.50;48.00;;;;;-1.85;100.00;101715.94;6310090;20;2868026;-44
2024/01/29 03:50:21;;;;;;;;;63.50;51.00;;;;;-1.83;100.00;101719.50;6277615;20;2849288;-43
2024/01/29 03:52:50;;;;;;;;;56.50;48.00;;;;;-2.11;100.00;101723.25;6270571;20;2500278;-44
2024/01/29 03:55:18;;;;;;;;;71.00;52.00;;;;;-2.19;100.00;101720.44;6272246;20;2508649;-46
2024/01/29 03:57:47;;;;;;;;;63.00;49.00;;;;;-1.78;100.00;101717.84;6272435;20;2503431;-44
2024/01/29 04:00:18;;;;;;;;;60.50;46.00;;;;;-2.04;100.00;101706.75;6272896;20;2508695;-44
2024/01/29 04:02:49;;;;;;;;;67.33;48.00;;;;;-2.24;100.00;101719.44;6271346;20;3629541;-45
2024/01/29 04:05:19;;;;;;;;;56.33;45.00;;;;;-2.26;100.00;101722.03;6305600;20;2877433;-44
2024/01/29 04:07:49;;;;;;;;;65.50;46.50;;;;;-2.40;100.00;101720.81;6305679;20;2875368;-45
2024/01/29 04:10:18;;;;;;;;;55.00;47.00;;;;;-2.10;100.00;101720.66;6275222;20;2843226;-45
2024/01/29 04:12:47;;;;;;;;;66.00;45.00;;;;;-2.16;100.00;101723.13;6271444;20;2877447;-43
2024/01/29 04:15:17;;;;;;;;;63.50;45.50;;;;;-2.45;100.00;101728.63;6270771;20;2890953;-44
2024/01/29 04:17:45;;;;;;;;;55.67;37.67;;;;;-2.59;100.00;101730.00;6274249;20;3611746;-44
2024/01/29 04:20:14;;;;;;;;;60.00;48.00;;;;;-2.62;100.00;101740.44;6274305;20;2508825;-44
2024/01/29 04:22:43;;;;;;;;;60.50;48.00;;;;;-2.05;100.00;101740.06;6273129;20;2846124;-44
2024/01/29 04:25:13;;;;;;;;;83.33;62.33;;;;;-2.09;100.00;101737.31;6276810;20;2899246;-44
2024/01/29 04:27:43;;;;;;;;;88.67;66.33;;;;;-2.53;100.00;101735.41;6309262;20;3650256;-45
2024/01/29 04:30:13;;;;;;;;;94.33;69.33;;;;;-2.44;100.00;101737.38;6306443;20;3647163;-44
2024/01/29 04:32:43;;;;;;;;;94.00;72.33;;;;;-2.69;100.00;101727.97;6300634;20;2880482;-44
2024/01/29 04:35:12;;;;;;;;;86.00;62.33;;;;;-2.75;100.00;101726.09;6305009;20;2897230;-44
2024/01/29 04:37:41;;;;;;;;;84.50;63.00;;;;;-2.78;100.00;101730.38;6301636;20;2500300;-44
2024/01/29 04:40:11;;;;;;;;;78.50;60.00;;;;;-2.28;100.00;101736.00;6266300;20;2502356;-45
2024/01/29 04:42:40;;;;;;;;;89.33;63.00;;;;;-2.86;100.00;101745.97;6273042;20;2897266;-44
2024/01/29 04:45:08;;;;;;;;;78.00;63.00;;;;;-2.59;100.00;101739.63;6305137;20;2502344;-44
2024/01/29 04:47:37;;;;;;;;;59.50;45.00;;;;;-2.21;100.00;101736.19;6275607;20;2884651;-44
2024/01/29 04:50:07;;;;;;;;;85.00;60.67;;;;;-2.28;100.00;101742.16;6275523;20;2896276;-46
2024/01/29 04:52:36;;;;;;;;;79.00;63.00;;;;;-2.45;100.00;101744.38;6308030;20;2881835;-45
2024/01/29 04:55:05;;;;;;;;;76.00;54.00;;;;;-1.92;100.00;101735.06;6271964;20;2489880;-47
2024/01/29 04:57:34;;;;;;;;;77.00;58.00;;;;;-2.54;100.00;101738.88;6272939;20;2500290;-44
2024/01/29 05:00:03;;;;;;;;;74.00;60.00;;;;;-2.74;100.00;101741.03;6267126;20;2500371;-44
2024/01/29 05:02:32;;;;;;;;;84.67;56.33;;;;;-2.17;100.00;101739.78;6269675;20;2896243;-43
2024/01/29 05:05:00;;;;;;;;;78.00;57.00;;;;;-2.24;100.00;101737.84;6293234;20;2500417;-44
2024/01/29 05:07:28;;;;;;;;;76.50;57.00;;;;;-2.71;100.00;101725.34;6276821;20;2884655;-44
2024/01/29 05:09:57;;;;;;;;;70.00;54.00;;;;;-2.65;100.00;101722.84;6268833;20;2869194;-47
2024/01/29 05:12:26;;;;;;;;;67.00;50.33;;;;;-2.22;100.00;101721.25;6269515;20;2884715;-45
2024/01/29 05:14:54;;;;;;;;;70.00;54.50;;;;;-2.10;100.00;101731.19;6300513;20;2499293;-44
2024/01/29 05:17:23;;;;;;;;;67.00;52.00;;;;;-2.14;100.00;101724.06;6269334;20;2874281;-44
2024/01/29 05:19:52;;;;;;;;;87.00;60.50;;;;;-2.31;100.00;101725.44;6271062;20;2895132;-45
2024/01/29 05:22:22;;;;;;;;;86.00;62.00;;;;;-2.45;100.00;101723.34;6274547;20;2895192;-45
2024/01/29 05:24:50;;;;;;;;;79.00;62.00;;;;;-2.51;100.00;101733.69;6269555;20;2500299;-46
2024/01/29 05:27:19;;;;;;;;;77.00;57.50;;;;;-2.73;100.00;101739.28;6274976;20;2879523;-43
2024/01/29 05:29:48;;;;;;;;;84.33;61.67;;;;;-2.62;100.00;101729.91;6275531;20;2893048;-44
2024/01/29 05:32:16;;;;;;;;;76.00;61.00;;;;;-2.72;100.00;101735.78;6301182;20;2500879;-44
2024/01/29 05:34:46;;;;;;;;;93.33;66.00;;;;;-2.03;100.00;101733.13;6268456;20;2898135;-44
2024/01/29 05:37:15;;;;;;;;;89.00;66.50;;;;;-2.59;100.00;101737.88;6305752;20;2893392;-46
2024/01/29 05:39:43;;;;;;;;;80.50;64.00;;;;;-2.87;100.00;101729.31;6264902;20;2500318;-46
2024/01/29 05:42:12;;;;;;;;;85.00;65.00;;;;;-2.88;100.00;101722.25;6270229;20;2884789;-44
2024/01/29 05:44:41;;;;;;;;;81.50;60.50;;;;;-2.50;100.00;101718.81;6269356;20;2873429;-43
2024/01/29 05:47:10;;;;;;;;;78.50;59.00;;;;;-2.51;100.00;101715.28;6275218;20;2877408;-44
2024/01/29 05:49:38;;;;;;;;;70.00;57.00;;;;;-2.61;100.00;101723.81;6272131;20;2501344;-44
2024/01/29 05:52:06;;;;;;;;;71.33;57.33;;;;;-2.76;100.00;101720.81;6272790;20;3608579;-44
2024/01/29 05:54:34;;;;;;;;;69.50;54.50;;;;;-2.84;100.00;101725.88;6270642;20;2498286;-45
2024/01/29 05:57:03;;;;;;;;;32.00;6.00;;;;;-3.14;100.00;101720.69;6274496;20;2810675;-44
2024/01/29 05:59:31;;;;;;;;;83.00;66.50;;;;;-2.96;100.00;101729.03;6275127;20;2883761;-43
2024/01/29 06:02:02;;;;;;;;;90.67;67.67;;;;;-2.83;100.00;101714.50;6269608;20;3653474;-44
2024/01/29 06:04:30;;;;;;;;;90.00;69.00;;;;;-2.91;100.00;101710.78;6299809;20;2502445;-43
2024/01/29 06:07:00;;;;;;;;;102.00;74.33;;;;;-2.99;100.00;101710.56;6272515;20;3685694;-44
2024/01/29 06:09:29;;;;;;;;;106.67;78.33;;;;;-3.15;100.00;101724.16;6267781;20;3660718;-44
2024/01/29 06:11:59;;;;;;;;;104.67;76.00;;;;;-3.21;100.00;101726.59;6301981;20;3672182;-44
2024/01/29 06:14:31;;;;;;;;;97.00;72.67;;;;;-3.40;100.00;101730.47;6299975;20;3648283;-45
2024/01/29 06:17:00;;;;;;;;;112.67;82.67;;;;;-3.18;100.00;101743.34;6304587;20;3688820;-42
2024/01/29 06:19:30;;;;;;;;;103.00;72.67;;;;;-3.19;100.00;101743.31;6310696;20;3660843;-45
2024/01/29 06:21:59;;;;;;;;;84.00;59.00;;;;;-3.58;100.00;101736.97;6307655;20;2898266;-45
2024/01/29 06:24:29;;;;;;;;;85.00;61.67;;;;;-3.24;100.00;101742.28;6275973;20;2890893;-46
2024/01/29 06:26:59;;;;;;;;;93.33;68.67;;;;;-3.22;100.00;101745.84;6312189;20;3659653;-45
2024/01/29 06:29:28;;;;;;;;;102.33;74.33;;;;;-3.09;100.00;101747.97;6311667;20;3677352;-45
2024/01/29 06:31:58;;;;;;;;;109.67;78.67;;;;;-3.19;100.00;101756.44;6310823;20;3671082;-45
2024/01/29 06:34:28;;;;;;;;;108.67;76.67;;;;;-2.77;100.00;101763.69;6309360;20;3676305;-46
2024/01/29 06:36:58;;;;;;;;;143.67;112.67;;;;;-2.63;100.00;101764.97;6276626;20;3721099;-48
2024/01/29 06:39:28;;;;;;;;;115.67;94.00;;;;;-2.69;100.00;101767.41;6277342;20;3690898;-48
2024/01/29 06:41:58;;;;;;;;;95.00;69.67;;;;;-2.51;100.00;101762.63;6275831;20;3656541;-45
2024/01/29 06:44:26;;;;;;;;;84.00;63.00;;;;;-2.03;100.00;101769.97;6302862;20;2502374;-48
2024/01/29 06:46:56;;;;;;;;;105.33;79.00;;;;;-2.55;100.00;101771.31;6277108;20;3686737;-46
2024/01/29 06:49:30;;;;;;;;;98.67;72.00;;;;;-2.79;100.00;101779.44;6277852;20;3679409;-45
2024/01/29 06:52:00;;;;;;;;;99.33;73.33;;;;;-2.89;100.00;101778.31;6308803;20;2894141;-47
2024/01/29 06:54:30;;;;;;;;;98.67;70.00;;;;;-2.24;100.00;101779.94;6308234;20;3670191;-46
2024/01/29 06:56:59;;;;;;;;;91.67;66.33;;;;;-1.16;100.00;101789.41;6311533;20;3653421;-46
2024/01/29 06:59:28;;;;;;;;;47.67;39.67;;;;;-1.06;100.00;101782.56;6309559;20;3564854;-46
2024/01/29 07:01:59;;;;;;;;;109.67;77.33;;;;;-0.73;99.79;101784.94;6309114;20;3674307;-46
2024/01/29 07:04:29;;;;;;;;;131.00;110.00;;;;;-0.24;96.41;101791.09;6308746;20;3712772;-48
2024/01/29 07:06:59;;;;;;;;;116.33;93.33;;;;;0.11;92.47;101787.25;6276281;20;3684661;-44
2024/01/29 07:09:31;;;;;;;;;142.00;103.00;;;;;1.66;83.06;101794.38;6277922;20;3708698;-45
2024/01/29 07:12:01;;;;;;;;;126.00;100.33;;;;;3.09;74.96;101796.13;6276469;20;3700270;-45
2024/01/29 07:14:33;;;;;;;;;206.50;168.00;;;;;5.10;64.82;101797.72;6276884;20;4487785;-44
2024/01/29 07:17:03;;;;;;;;;119.67;98.33;;;;;6.59;58.87;101794.78;6276874;20;3693106;-45
2024/01/29 07:19:33;;;;;;;;;85.00;66.00;;;;;7.83;54.73;101800.19;6279035;20;3640879;-46
2024/01/29 07:22:04;;;;;;;;;83.67;65.33;;;;;6.92;53.60;101797.94;6309544;20;3643969;-45
2024/01/29 07:24:35;;;;;;;;;84.33;65.00;;;;;6.42;55.97;101807.41;6307154;20;3630487;-44
2024/01/29 07:27:04;;;;;;;;;65.00;53.00;;;;;7.70;53.59;101811.09;6308618;20;2808604;-46
2024/01/29 07:29:34;;;;;;;;;83.67;61.33;;;;;8.81;50.42;101813.63;6277457;20;3652293;-45
2024/01/29 07:32:04;;;;;;;;;84.00;63.00;;;;;8.78;49.21;101811.91;6307308;20;3635658;-45
2024/01/29 07:34:34;;;;;;;;;80.00;61.00;;;;;6.90;53.90;101799.72;6308105;20;3657529;-45
2024/01/29 07:37:04;;;;;;;;;89.00;70.33;;;;;3.08;65.79;101795.25;6306065;20;3668051;-46
2024/01/29 07:39:34;;;;;;;;;93.00;75.00;;;;;1.19;82.99;101784.22;6309092;20;3656493;-44
2024/01/29 07:42:04;;;;;;;;;95.33;75.33;;;;;0.81;89.74;101782.00;6293752;20;3662877;-45
2024/01/29 07:44:34;;;;;;;;;91.00;68.33;;;;;0.58;94.83;101782.63;6307380;20;3659599;-45
2024/01/29 07:47:03;;;;;;;;;97.33;77.33;;;;;0.93;95.21;101782.16;6308691;20;3673258;-45
2024/01/29 07:49:33;;;;;;;;;98.33;76.67;;;;;1.31;95.14;101781.69;6306518;20;3678442;-45
2024/01/29 07:52:04;;;;;;;;;83.00;63.00;;;;;1.38;95.46;101780.00;6274749;20;3646098;-45
2024/01/29 07:54:31;;;;;;;;;46.50;34.50;;;;;1.34;96.18;101771.13;6306520;20;2831542;-46
2024/01/29 07:57:03;;;;;;;;;78.67;59.33;;;;;1.70;95.49;101767.06;6274651;20;3642045;-44
2024/01/29 07:59:32;;;;;;;;;78.33;59.33;;;;;1.26;97.85;101767.53;6304173;20;3631503;-46
2024/01/29 08:02:01;;;;;;;;;65.00;49.00;;;;;1.80;95.82;101782.16;6307535;20;2874239;-45
2024/01/29 08:04:32;;;;;;;;;63.50;50.00;;;;;1.90;95.55;101785.75;6269270;20;2864964;-44
2024/01/29 08:07:02;;;;;;;;;74.33;57.00;;;;;1.95;94.38;101784.91;6275931;20;2885820;-44
2024/01/29 08:09:31;;;;;;;;;79.00;62.00;;;;;0.95;100.00;101776.88;6308016;20;3634624;-44
2024/01/29 08:12:01;;;;;;;;;83.33;61.33;;;;;1.02;100.00;101792.84;6309595;20;2898341;-44
2024/01/29 08:14:31;;;;;;;;;99.67;75.00;;;;;1.47;100.00;101783.59;6307711;20;3673240;-45
2024/01/29 08:17:00;;;;;;;;;80.67;61.00;;;;;2.51;97.80;101785.28;6276037;20;3638544;-45
2024/01/29 08:19:30;;;;;;;;;95.33;70.00;;;;;2.55;95.21;101790.59;6308805;20;3650391;-46
2024/01/29 08:22:01;;;;;;;;;181.75;141.00;;;;;2.71;94.00;101791.53;6306598;20;3720222;-45
2024/01/29 08:24:29;;;;;;;;;151.00;122.50;;;;;2.84;94.32;101784.53;6301088;20;1960881;-45
2024/01/29 08:26:58;;;;;;;;;96.00;71.67;;;;;2.77;93.32;101782.75;6274532;20;3667967;-47
2024/01/29 08:29:28;;;;;;;;;79.67;59.33;;;;;3.30;90.58;101785.56;6274175;20;2894033;-45
2024/01/29 08:31:57;;;;;;;;;63.33;46.00;;;;;2.89;90.75;101776.59;6309721;20;2869102;-45
2024/01/29 08:34:29;;;;;;;;;68.00;48.67;;;;;3.27;90.50;101785.56;6302713;20;2881596;-45
2024/01/29 08:36:59;;;;;;;;;54.00;42.33;;;;;2.96;89.70;101781.06;6306616;20;2877377;-46
2024/01/29 08:39:28;;;;;;;;;48.50;41.00;;;;;2.86;91.92;101783.66;6305185;20;2863939;-45
2024/01/29 08:41:57;;;;;;;;;61.00;46.50;;;;;3.41;90.83;101790.91;6274494;20;2874347;-46
2024/01/29 08:44:25;;;;;;;;;65.00;49.50;;;;;3.52;89.59;101791.78;6272190;20;2499252;-46
2024/01/29 08:46:55;;;;;;;;;56.00;43.00;;;;;3.56;89.18;101797.13;6278950;20;2890015;-46
2024/01/29 08:49:24;;;;;;;;;59.00;41.33;;;;;2.44;95.62;101794.06;6303676;20;3631895;-46
2024/01/29 08:51:53;;;;;;;;;64.00;52.00;;;;;3.49;92.45;101798.88;6308535;20;2859753;-46
2024/01/29 08:54:22;;;;;;;;;84.00;63.00;;;;;3.63;91.65;101796.22;6273788;20;2768040;-45
2024/01/29 08:56:51;;;;;;;;;66.33;49.00;;;;;3.30;90.74;101795.31;6276221;20;2882628;-44
2024/01/29 08:59:21;;;;;;;;;61.00;47.67;;;;;3.54;91.24;101788.28;6306062;20;2862805;-45
2024/01/29 09:01:49;;;;;;;;;52.50;40.50;;;;;4.15;90.04;101797.13;6300996;20;2498304;-45
2024/01/29 09:04:19;;;;;;;;;55.00;41.33;;;;;3.08;94.06;101786.38;6272343;20;2876435;-46
2024/01/29 09:06:49;;;;;;;;;70.33;55.00;;;;;3.09;99.49;101793.47;6306685;20;3634181;-45
2024/01/29 09:09:18;;;;;;;;;49.50;40.50;;;;;3.06;97.99;101796.13;6304597;20;2856576;-46
2024/01/29 09:11:47;;;;;;;;;45.00;40.50;;;;;3.47;97.99;101795.31;6276345;20;2857688;-45
2024/01/29 09:14:16;;;;;;;;;38.67;30.33;;;;;3.96;94.84;101798.03;6273436;20;2873296;-47
2024/01/29 09:16:45;;;;;;;;;28.50;28.50;;;;;3.60;95.85;101794.47;6305212;20;2858596;-45
2024/01/29 09:19:14;;;;;;;;;35.50;29.50;;;;;3.33;94.85;101799.75;6275459;20;2848180;-47
2024/01/29 09:21:50;;;;;;;;;24.33;20.00;;;;;3.84;88.97;101798.00;6276638;20;3567956;-45
2024/01/29 09:24:19;;;;;;;;;30.67;22.67;;;;;4.24;87.27;101804.22;6276372;20;3591952;-45
2024/01/29 09:26:46;;;;;;;;;25.50;22.00;;;;;4.33;83.87;101812.16;6276390;20;2500351;-45
2024/01/29 09:29:14;;;;;;;;;12.50;10.00;;;;;4.78;80.13;101807.59;6277763;20;2790900;-44
2024/01/29 09:31:43;;;;;;;;;34.50;23.00;;;;;4.99;78.86;101806.63;6274677;20;2496121;-46
2024/01/29 09:34:11;;;;;;;;;26.00;20.50;;;;;4.84;79.60;101814.69;6276124;20;2833650;-45
2024/01/29 09:36:39;;;;;;;;;31.00;27.00;;;;;4.62;80.65;101808.56;6276276;20;2500461;-46
2024/01/29 09:39:08;;;;;;;;;124.33;115.33;;;;;5.45;78.35;101814.41;6304484;20;3702413;-44
2024/01/29 09:41:38;;;;;;;;;66.00;53.50;;;;;5.44;78.92;101811.72;6274633;20;2848292;-45
2024/01/29 09:44:09;;;;;;;;;32.00;27.50;;;;;5.13;80.40;101808.34;6274679;20;2848303;-45
2024/01/29 09:46:40;;;;;;;;;32.50;27.50;;;;;4.46;82.63;101805.03;6275900;20;2843201;-45
2024/01/29 09:49:11;;;;;;;;;84.50;64.00;;;;;5.39;79.04;101805.53;6274754;20;3532598;-45
2024/01/29 09:51:42;;;;;;;;;64.33;50.33;;;;;5.60;76.87;101805.41;6311734;20;3613823;-45
2024/01/29 09:54:12;;;;;;;;;34.00;31.67;;;;;5.25;78.14;101802.97;6307667;20;2856536;-47
2024/01/29 09:56:41;;;;;;;;;33.67;31.33;;;;;5.28;77.31;101802.94;6310824;20;2860870;-45
2024/01/29 09:59:10;;;;;;;;;30.50;26.00;;;;;5.67;75.39;101806.25;6306258;20;2843117;-45
2024/01/29 10:01:41;;;;;;;;;29.00;26.00;;;;;5.80;73.42;101801.72;6280454;20;2842981;-46
2024/01/29 10:04:11;;;;;;;;;27.50;24.00;;;;;5.97;71.94;101807.81;6270131;20;2848305;-47
2024/01/29 10:06:41;;;;;;;;;27.00;26.00;;;;;6.25;70.88;101812.91;6276505;20;2839887;-46
2024/01/29 10:09:11;;;;;;;;;53.00;38.50;;;;;6.07;71.23;101805.97;6282103;20;2863921;-46
2024/01/29 10:11:43;;;;;;;;;39.67;34.33;;;;;6.34;68.51;101799.47;6278768;20;2877549;-45
2024/01/29 10:14:12;;;;;;;;;28.00;22.00;;;;;5.59;70.99;101802.75;6309645;20;2860690;-45
2024/01/29 10:16:40;;;;;;;;;25.50;24.00;;;;;6.23;68.88;101806.72;6278771;20;2500324;-46
2024/01/29 10:19:09;;;;;;;;;24.00;20.50;;;;;6.03;71.21;101804.22;6279954;20;2844174;-45
2024/01/29 10:21:43;;;;;;;;;32.00;28.50;;;;;5.54;71.24;101793.91;6281942;20;2855541;-45
2024/01/29 10:24:18;;;;;;;;;32.00;30.00;;;;;5.38;72.23;101796.66;6278413;20;2856632;-46
2024/01/29 10:26:47;;;;;;;;;30.33;28.33;;;;;6.11;71.98;101802.38;6281682;20;2864878;-45
2024/01/29 10:29:17;;;;;;;;;25.00;21.00;;;;;6.04;69.71;101790.00;6312176;20;2842231;-45
2024/01/29 10:31:46;;;;;;;;;57.50;44.50;;;;;6.04;70.65;101787.31;6282955;20;2847154;-45
2024/01/29 10:34:16;;;;;;;;;40.67;34.33;;;;;6.29;67.26;101780.88;6277638;20;3610779;-45
2024/01/29 10:36:49;;;;;;;;;43.00;35.00;;;;;6.91;66.04;101780.16;6311234;20;2872217;-46
2024/01/29 10:39:22;;;;;;;;;52.33;42.00;;;;;6.17;68.19;101774.78;6280082;20;2857631;-47
2024/01/29 10:41:52;;;;;;;;;31.50;29.00;;;;;6.83;66.90;101777.56;6310276;20;2855519;-45
2024/01/29 10:44:23;;;;;;;;;23.50;21.50;;;;;6.50;66.56;101781.50;6276601;20;2844181;-45
2024/01/29 10:46:55;;;;;;;;;21.00;17.00;;;;;6.50;67.85;101781.50;6276880;20;2500295;-45
2024/01/29 10:49:25;;;;;;;;;25.50;19.00;;;;;6.69;65.67;101780.44;6281696;20;2835701;-45
2024/01/29 10:51:54;;;;;;;;;23.00;18.00;;;;;6.29;67.50;101772.88;6275242;20;2500267;-45
2024/01/29 10:54:23;;;;;;;;;23.00;21.00;;;;;6.47;67.47;101776.22;6276686;20;2496141;-45
2024/01/29 10:56:52;;;;;;;;;25.50;22.00;;;;;6.52;66.07;101769.03;6277785;20;2848229;-48
2024/01/29 10:59:22;;;;;;;;;24.00;22.00;;;;;6.93;66.84;101773.00;6280303;20;2835802;-45
2024/01/29 11:01:52;;;;;;;;;22.67;21.33;;;;;6.87;66.26;101765.94;6275486;20;3574245;-46